createdAt,value
2018-07-13T00:02:16.475Z,20.93
2018-07-13T00:04:44.638Z,20.23
2018-07-13T00:07:12.830Z,20.53
2018-07-13T00:09:40.988Z,20.60
2018-07-13T00:12:09.146Z,19.73
2018-07-13T00:14:37.335Z,20.93
2018-07-13T00:17:05.574Z,20.20
2018-07-13T00:19:33.730Z,20.33
2018-07-13T00:22:01.922Z,21.00
2018-07-13T00:24:30.094Z,20.47
2018-07-13T00:26:58.271Z,20.67
2018-07-13T00:29:26.435Z,23.27
2018-07-13T00:31:54.606Z,21.70
2018-07-13T00:34:22.782Z,21.67
2018-07-13T00:36:50.955Z,22.07
2018-07-13T00:39:19.118Z,21.53
2018-07-13T00:41:47.282Z,22.60
2018-07-13T00:44:15.443Z,22.27
2018-07-13T00:46:43.623Z,23.20
2018-07-13T00:49:11.798Z,22.10
2018-07-13T00:51:39.959Z,23.97
2018-07-13T00:54:08.159Z,24.07
2018-07-13T00:56:36.318Z,23.17
2018-07-13T00:59:04.484Z,24.23
2018-07-13T01:01:32.650Z,24.30
2018-07-13T01:04:00.838Z,22.80
2018-07-13T01:06:29.010Z,25.00
2018-07-13T01:08:57.195Z,25.50
2018-07-13T01:11:25.378Z,25.73
2018-07-13T01:13:53.533Z,28.73
2018-07-13T01:16:21.707Z,25.37
2018-07-13T01:18:49.902Z,24.70
2018-07-13T01:21:18.094Z,23.90
2018-07-13T01:23:46.288Z,24.87
2018-07-13T01:26:14.501Z,24.50
2018-07-13T01:28:42.683Z,23.90
2018-07-13T01:31:10.859Z,25.03
2018-07-13T01:33:39.043Z,23.70
2018-07-13T01:36:07.210Z,23.03
2018-07-13T01:38:35.390Z,22.97
2018-07-13T01:41:03.643Z,24.03
2018-07-13T01:43:31.778Z,24.57
2018-07-13T01:45:59.950Z,23.07
2018-07-13T01:48:28.147Z,24.00
2018-07-13T01:50:56.318Z,22.53
2018-07-13T01:53:24.498Z,23.83
2018-07-13T01:55:52.663Z,23.27
2018-07-13T01:58:20.840Z,23.70
2018-07-13T02:00:49.014Z,23.53
2018-07-13T02:03:17.206Z,21.50
2018-07-13T02:05:45.858Z,21.97
2018-07-13T02:08:14.036Z,21.90
2018-07-13T02:10:42.243Z,21.63
2018-07-13T02:13:10.438Z,22.00
2018-07-13T02:15:38.654Z,22.50
2018-07-13T02:18:06.839Z,23.17
2018-07-13T02:20:35.021Z,22.17
2018-07-13T02:23:03.199Z,24.17
2018-07-13T02:25:31.378Z,22.60
2018-07-13T02:27:59.590Z,23.07
2018-07-13T02:30:27.771Z,22.07
2018-07-13T02:32:56.174Z,23.13
2018-07-13T02:35:24.342Z,23.73
2018-07-13T02:37:52.525Z,23.40
2018-07-13T02:40:20.715Z,21.57
2018-07-13T02:42:48.878Z,21.70
2018-07-13T02:45:17.058Z,21.63
2018-07-13T02:47:45.226Z,21.90
2018-07-13T02:50:13.402Z,22.00
2018-07-13T02:52:41.573Z,21.40
2018-07-13T02:55:09.771Z,23.10
2018-07-13T02:57:37.938Z,22.47
2018-07-13T03:00:06.136Z,24.30
2018-07-13T03:02:34.339Z,21.00
2018-07-13T03:05:02.515Z,21.03
2018-07-13T03:07:30.695Z,21.60
2018-07-13T03:09:58.879Z,22.23
2018-07-13T03:12:27.059Z,22.87
2018-07-13T03:14:55.231Z,22.13
2018-07-13T03:17:23.435Z,21.63
2018-07-13T03:19:51.611Z,22.10
2018-07-13T03:22:19.803Z,21.13
2018-07-13T03:24:47.979Z,21.37
2018-07-13T03:27:16.168Z,22.00
2018-07-13T03:29:44.346Z,21.67
2018-07-13T03:32:12.539Z,20.33
2018-07-13T03:34:40.724Z,21.70
2018-07-13T03:37:08.903Z,23.10
2018-07-13T03:39:37.090Z,20.60
2018-07-13T03:42:05.274Z,19.77
2018-07-13T03:44:33.454Z,22.40
2018-07-13T03:47:01.628Z,21.60
2018-07-13T03:49:29.815Z,21.17
2018-07-13T03:51:57.987Z,21.60
2018-07-13T03:54:26.189Z,20.03
2018-07-13T03:56:54.526Z,20.20
2018-07-13T03:59:22.931Z,19.20
2018-07-13T04:01:51.115Z,20.97
2018-07-13T04:04:19.555Z,20.30
2018-07-13T04:06:47.741Z,20.93
2018-07-13T04:09:15.916Z,20.20
2018-07-13T04:11:44.108Z,20.83
2018-07-13T04:14:12.278Z,20.30
2018-07-13T04:16:40.467Z,19.70
2018-07-13T04:19:08.662Z,22.50
2018-07-13T04:21:36.878Z,22.70
2018-07-13T04:24:05.218Z,24.00
2018-07-13T04:26:33.441Z,24.37
2018-07-13T04:29:01.660Z,24.23
2018-07-13T04:31:29.830Z,25.67
2018-07-13T04:33:58.022Z,25.53
2018-07-13T04:36:26.210Z,26.03
2018-07-13T04:38:54.378Z,23.60
2018-07-13T04:41:22.547Z,26.70
2018-07-13T04:43:50.774Z,24.87
2018-07-13T04:46:18.969Z,27.50
2018-07-13T04:48:47.375Z,27.43
2018-07-13T04:51:15.583Z,25.90
2018-07-13T04:53:43.787Z,26.00
2018-07-13T04:56:12.019Z,27.87
2018-07-13T04:58:40.251Z,28.10
2018-07-13T05:01:08.458Z,28.53
2018-07-13T05:03:36.660Z,27.73
2018-07-13T05:06:05.192Z,26.67
2018-07-13T05:08:33.368Z,27.40
2018-07-13T05:11:01.563Z,26.50
2018-07-13T05:13:29.730Z,26.73
2018-07-13T05:15:57.946Z,28.23
2018-07-13T05:18:26.136Z,27.57
2018-07-13T05:20:54.335Z,27.00
2018-07-13T05:23:22.590Z,26.33
2018-07-13T05:25:50.782Z,29.23
2018-07-13T05:28:19.154Z,27.77
2018-07-13T05:30:47.363Z,29.67
2018-07-13T05:33:15.579Z,26.93
2018-07-13T05:35:43.771Z,28.37
2018-07-13T05:38:11.987Z,27.80
2018-07-13T05:40:40.212Z,27.73
2018-07-13T05:43:08.416Z,25.73
2018-07-13T05:45:36.612Z,25.07
2018-07-13T05:48:04.818Z,27.33
2018-07-13T05:50:33.027Z,25.37
2018-07-13T05:53:01.247Z,25.00
2018-07-13T05:55:29.451Z,24.40
2018-07-13T05:57:57.652Z,25.93
2018-07-13T06:00:25.870Z,26.67
2018-07-13T06:02:54.126Z,25.17
2018-07-13T06:05:22.382Z,25.20
2018-07-13T06:07:50.571Z,24.77
2018-07-13T06:10:18.795Z,25.53
2018-07-13T06:12:47.006Z,23.60
2018-07-13T06:15:15.210Z,24.67
2018-07-13T06:17:43.395Z,25.63
2018-07-13T06:20:12.111Z,24.57
2018-07-13T06:22:40.387Z,24.73
2018-07-13T06:25:09.180Z,25.50
2018-07-13T06:27:37.363Z,24.77
2018-07-13T06:30:06.632Z,24.67
2018-07-13T06:32:34.803Z,24.87
2018-07-13T06:35:03.302Z,25.10
2018-07-13T06:37:31.540Z,23.23
2018-07-13T06:39:59.738Z,23.23
2018-07-13T06:42:27.939Z,23.73
2018-07-13T06:44:56.177Z,27.83
2018-07-13T06:47:24.303Z,27.70
2018-07-13T06:49:52.495Z,25.47
2018-07-13T06:52:20.743Z,24.37
2018-07-13T06:54:48.931Z,25.90
2018-07-13T06:57:28.238Z,23.93
2018-07-13T06:59:56.451Z,25.53
2018-07-13T07:02:35.894Z,25.43
2018-07-13T07:06:15.190Z,25.10
2018-07-13T07:08:46.335Z,25.23
2018-07-13T07:11:14.681Z,27.07
2018-07-13T07:13:43.847Z,27.63
2018-07-13T07:16:12.082Z,25.33
2018-07-13T07:18:40.266Z,26.53
2018-07-13T07:21:08.663Z,24.80
2018-07-13T07:23:36.916Z,26.00
2018-07-13T07:26:05.606Z,24.87
2018-07-13T07:28:33.799Z,23.30
2018-07-13T07:31:02.675Z,23.73
2018-07-13T07:33:30.842Z,24.30
2018-07-13T07:35:59.014Z,23.50
2018-07-13T07:38:27.212Z,25.17
2018-07-13T07:40:55.396Z,26.03
2018-07-13T07:43:23.578Z,24.93
2018-07-13T07:45:51.775Z,23.83
2018-07-13T07:48:19.935Z,23.90
2018-07-13T07:50:48.110Z,24.60
2018-07-13T07:53:16.298Z,24.90
2018-07-13T07:55:44.467Z,23.83
2018-07-13T07:58:12.676Z,25.00
2018-07-13T08:00:40.838Z,22.33
2018-07-13T08:03:09.062Z,20.03
2018-07-13T08:05:37.227Z,18.17
2018-07-13T08:08:05.660Z,19.13
2018-07-13T08:10:33.847Z,19.40
2018-07-13T08:13:02.434Z,22.23
2018-07-13T08:15:30.602Z,21.73
2018-07-13T08:17:58.758Z,20.17
2018-07-13T08:20:30.454Z,18.93
2018-07-13T08:23:00.235Z,20.10
2018-07-13T08:25:28.626Z,18.60
2018-07-13T08:28:01.195Z,18.10
2018-07-13T08:30:34.275Z,20.40
2018-07-13T08:33:02.480Z,20.53
2018-07-13T08:35:30.690Z,19.67
2018-07-13T08:37:58.947Z,21.97
2018-07-13T08:40:27.134Z,20.90
2018-07-13T08:42:55.350Z,20.27
2018-07-13T08:45:23.715Z,22.47
2018-07-13T08:47:51.938Z,19.50
2018-07-13T08:50:20.215Z,20.00
2018-07-13T08:52:48.378Z,20.50
2018-07-13T08:55:17.083Z,19.13
2018-07-13T08:57:47.488Z,18.53
2018-07-13T09:00:16.413Z,17.50
2018-07-13T09:02:44.664Z,16.43
2018-07-13T09:05:15.225Z,16.30
2018-07-13T09:07:43.722Z,16.30
2018-07-13T09:10:12.847Z,16.43
2018-07-13T09:12:41.794Z,19.73
2018-07-13T09:15:11.722Z,17.13
2018-07-13T09:17:40.087Z,15.57
2018-07-13T09:20:10.004Z,16.10
2018-07-13T09:22:38.466Z,14.90
2018-07-13T09:25:07.934Z,14.97
2018-07-13T09:27:36.348Z,14.77
2018-07-13T09:30:05.267Z,13.60
2018-07-13T09:32:33.761Z,15.03
2018-07-13T09:35:02.336Z,14.87
2018-07-13T09:37:30.786Z,13.20
2018-07-13T09:39:58.958Z,12.90
2018-07-13T09:42:27.158Z,13.90
2018-07-13T09:44:55.359Z,14.37
2018-07-13T09:47:23.598Z,13.07
2018-07-13T09:49:51.770Z,11.93
2018-07-13T09:52:20.073Z,11.50
2018-07-13T09:54:48.267Z,11.33
2018-07-13T09:57:16.457Z,11.93
2018-07-13T09:59:44.643Z,12.30
2018-07-13T10:02:12.871Z,12.23
2018-07-13T10:04:41.246Z,11.70
2018-07-13T10:07:09.478Z,11.20
2018-07-13T10:09:37.914Z,11.93
2018-07-13T10:12:06.322Z,10.50
2018-07-13T10:14:35.015Z,10.87
2018-07-13T10:17:03.382Z,12.00
2018-07-13T10:19:31.873Z,11.50
2018-07-13T10:22:00.481Z,11.73
2018-07-13T10:24:28.874Z,12.33
2018-07-13T10:26:57.422Z,13.63
2018-07-13T10:29:33.387Z,12.63
2018-07-13T10:32:02.831Z,11.60
2018-07-13T10:34:31.627Z,12.50
2018-07-13T10:37:02.534Z,10.87
2018-07-13T10:39:31.438Z,11.17
2018-07-13T10:41:59.627Z,11.80
2018-07-13T10:44:28.275Z,12.60
2018-07-13T10:46:56.884Z,12.90
2018-07-13T10:49:25.379Z,12.33
2018-07-13T10:51:53.956Z,11.63
2018-07-13T10:54:22.630Z,13.07
2018-07-13T10:56:51.021Z,12.10
2018-07-13T10:59:19.158Z,12.30
2018-07-13T11:01:47.349Z,12.63
2018-07-13T11:04:15.526Z,11.77
2018-07-13T11:06:44.618Z,12.30
2018-07-13T11:09:12.918Z,13.30
2018-07-13T11:11:41.080Z,12.10
2018-07-13T11:14:09.551Z,11.63
2018-07-13T11:16:37.883Z,12.90
2018-07-13T11:19:06.056Z,11.47
2018-07-13T11:21:34.241Z,12.30
2018-07-13T11:24:02.566Z,11.60
2018-07-13T11:26:30.886Z,12.17
2018-07-13T11:28:59.232Z,12.77
2018-07-13T11:31:27.411Z,11.73
2018-07-13T11:33:55.762Z,11.73
2018-07-13T11:36:23.947Z,11.90
2018-07-13T11:38:52.147Z,10.80
2018-07-13T11:41:20.632Z,11.13
2018-07-13T11:43:49.633Z,12.47
2018-07-13T11:46:17.959Z,12.20
2018-07-13T11:48:46.275Z,11.87
2018-07-13T11:51:14.793Z,11.57
2018-07-13T11:53:43.171Z,11.70
2018-07-13T11:56:11.575Z,11.30
2018-07-13T11:58:40.028Z,11.67
2018-07-13T12:01:08.519Z,11.10
2018-07-13T12:03:37.014Z,11.87
2018-07-13T12:06:06.018Z,11.10
2018-07-13T12:08:34.499Z,12.57
2018-07-13T12:11:02.892Z,12.40
2018-07-13T12:13:31.059Z,11.57
2018-07-13T12:15:59.304Z,11.70
2018-07-13T12:18:27.624Z,12.23
2018-07-13T12:20:55.867Z,11.10
2018-07-13T12:23:24.029Z,11.73
2018-07-13T12:25:52.255Z,12.07
2018-07-13T12:28:20.608Z,11.33
2018-07-13T12:30:48.888Z,11.70
2018-07-13T12:33:17.299Z,12.93
2018-07-13T12:35:45.734Z,11.83
2018-07-13T12:38:14.081Z,11.93
2018-07-13T12:40:42.433Z,11.20
2018-07-13T12:43:10.703Z,11.13
2018-07-13T12:45:39.309Z,12.23
2018-07-13T12:48:07.820Z,11.40
2018-07-13T12:50:36.200Z,11.90
2018-07-13T12:53:04.476Z,12.37
2018-07-13T12:55:32.750Z,11.87
2018-07-13T12:58:01.048Z,10.90
2018-07-13T13:00:29.270Z,12.03
2018-07-13T13:02:57.647Z,11.73
2018-07-13T13:05:26.989Z,12.10
2018-07-13T13:07:55.236Z,10.90
2018-07-13T13:10:23.625Z,11.80
2018-07-13T13:12:52.159Z,13.20
2018-07-13T13:15:20.463Z,11.83
2018-07-13T13:17:48.678Z,11.77
2018-07-13T13:20:16.870Z,11.60
2018-07-13T13:22:45.031Z,12.60
2018-07-13T13:25:13.216Z,11.17
2018-07-13T13:27:41.374Z,11.10
2018-07-13T13:30:09.746Z,11.50
2018-07-13T13:32:37.923Z,11.83
2018-07-13T13:35:06.127Z,12.30
2018-07-13T13:37:34.290Z,11.70
2018-07-13T13:40:02.491Z,13.40
2018-07-13T13:42:30.669Z,11.80
2018-07-13T13:44:58.859Z,13.43
2018-07-13T13:47:27.154Z,11.70
2018-07-13T13:49:55.461Z,12.37
2018-07-13T13:52:23.725Z,12.30
2018-07-13T13:54:52.111Z,12.13
2018-07-13T13:57:20.651Z,12.60
2018-07-13T13:59:49.138Z,12.37
2018-07-13T14:02:17.448Z,12.27
2018-07-13T14:04:45.623Z,12.10
2018-07-13T14:07:14.051Z,12.53
2018-07-13T14:09:42.224Z,11.77
2018-07-13T14:12:10.493Z,11.60
2018-07-13T14:14:38.658Z,12.60
2018-07-13T14:17:06.794Z,12.30
2018-07-13T14:19:35.016Z,13.90
2018-07-13T14:22:03.363Z,13.23
2018-07-13T14:24:31.582Z,12.60
2018-07-13T14:26:59.883Z,12.67
2018-07-13T14:29:28.060Z,12.13
2018-07-13T14:31:56.511Z,13.27
2018-07-13T14:34:24.685Z,12.70
2018-07-13T14:36:52.852Z,13.00
2018-07-13T14:39:21.075Z,14.60
2018-07-13T14:41:49.455Z,13.70
2018-07-13T14:44:17.629Z,13.13
2018-07-13T14:46:45.819Z,12.97
2018-07-13T14:49:14.019Z,13.13
2018-07-13T14:51:42.207Z,13.10
2018-07-13T14:54:10.391Z,13.23
2018-07-13T14:56:38.573Z,13.33
2018-07-13T14:59:06.830Z,13.53
2018-07-13T15:01:35.033Z,13.70
2018-07-13T15:04:03.346Z,12.33
2018-07-13T15:06:31.518Z,13.60
2018-07-13T15:08:59.790Z,13.20
2018-07-13T15:11:28.019Z,14.37
2018-07-13T15:13:56.193Z,12.20
2018-07-13T15:16:24.381Z,11.50
2018-07-13T15:18:52.523Z,14.47
2018-07-13T15:21:20.699Z,12.67
2018-07-13T15:23:48.871Z,12.17
2018-07-13T15:26:17.051Z,13.10
2018-07-13T15:28:45.226Z,12.73
2018-07-13T15:31:13.412Z,12.47
2018-07-13T15:33:41.583Z,12.90
2018-07-13T15:36:09.773Z,13.17
2018-07-13T15:38:37.946Z,13.30
2018-07-13T15:41:06.208Z,13.10
2018-07-13T15:43:34.398Z,12.70
2018-07-13T15:46:02.586Z,13.13
2018-07-13T15:48:30.956Z,12.80
2018-07-13T15:50:59.138Z,12.63
2018-07-13T15:53:28.022Z,13.17
2018-07-13T15:55:57.847Z,12.87
2018-07-13T15:58:27.442Z,13.73
2018-07-13T16:00:55.683Z,12.43
2018-07-13T16:03:24.083Z,11.07
2018-07-13T16:05:52.442Z,11.67
2018-07-13T16:08:20.839Z,12.13
2018-07-13T16:10:49.101Z,11.37
2018-07-13T16:13:17.206Z,12.13
2018-07-13T16:15:45.402Z,12.50
2018-07-13T16:18:13.717Z,11.90
2018-07-13T16:20:44.369Z,13.07
2018-07-13T16:23:12.559Z,12.83
2018-07-13T16:25:41.063Z,12.43
2018-07-13T16:28:09.935Z,13.40
2018-07-13T16:30:39.404Z,12.13
2018-07-13T16:33:07.890Z,12.73
2018-07-13T16:35:36.621Z,13.23
2018-07-13T16:38:04.880Z,12.67
2018-07-13T16:40:33.538Z,13.10
2018-07-13T16:43:02.575Z,13.37
2018-07-13T16:45:31.259Z,13.93
2018-07-13T16:48:00.392Z,12.20
2018-07-13T16:50:28.886Z,14.47
2018-07-13T16:52:57.106Z,11.50
2018-07-13T16:55:25.639Z,12.83
2018-07-13T16:57:53.803Z,12.63
2018-07-13T17:00:22.167Z,13.10
2018-07-13T17:02:50.652Z,13.13
2018-07-13T17:05:18.893Z,12.33
2018-07-13T17:07:47.265Z,13.13
2018-07-13T17:10:15.911Z,13.20
2018-07-13T17:12:44.275Z,13.77
2018-07-13T17:15:13.131Z,12.33
2018-07-13T17:17:41.402Z,12.97
2018-07-13T17:20:09.715Z,14.10
2018-07-13T17:22:38.055Z,13.23
2018-07-13T17:25:06.481Z,13.73
2018-07-13T17:27:34.818Z,14.40
2018-07-13T17:30:03.031Z,13.53
2018-07-13T17:32:31.199Z,13.40
2018-07-13T17:34:59.408Z,12.73
2018-07-13T17:37:27.566Z,12.07
2018-07-13T17:39:55.754Z,13.80
2018-07-13T17:42:23.976Z,13.83
2018-07-13T17:44:52.310Z,13.97
2018-07-13T17:47:20.564Z,13.57
2018-07-13T17:49:48.750Z,13.00
2018-07-13T17:52:17.190Z,13.13
2018-07-13T17:54:45.466Z,11.93
2018-07-13T17:57:13.889Z,14.10
2018-07-13T17:59:42.206Z,14.80
2018-07-13T18:02:10.402Z,12.90
2018-07-13T18:04:38.607Z,12.90
2018-07-13T18:07:06.810Z,13.77
2018-07-13T18:09:34.986Z,12.80
2018-07-13T18:12:03.169Z,13.57
2018-07-13T18:14:31.353Z,16.03
2018-07-13T18:16:59.559Z,13.40
2018-07-13T18:19:27.749Z,13.80
2018-07-13T18:21:55.943Z,14.30
2018-07-13T18:24:24.154Z,13.90
2018-07-13T18:26:52.350Z,14.00
2018-07-13T18:29:20.534Z,13.00
2018-07-13T18:31:48.719Z,14.17
2018-07-13T18:34:16.907Z,14.93
2018-07-13T18:36:45.142Z,12.80
2018-07-13T18:39:13.382Z,13.87
2018-07-13T18:41:41.650Z,13.40
2018-07-13T18:44:09.895Z,12.37
2018-07-13T18:46:38.107Z,13.13
2018-07-13T18:49:06.297Z,12.47
2018-07-13T18:51:34.628Z,14.03
2018-07-13T18:54:02.834Z,12.97
2018-07-13T18:56:31.193Z,14.27
2018-07-13T18:58:59.439Z,12.90
2018-07-13T19:01:27.699Z,14.23
2018-07-13T19:03:55.898Z,14.40
2018-07-13T19:06:24.106Z,13.10
2018-07-13T19:08:52.342Z,13.97
2018-07-13T19:11:20.566Z,14.30
2018-07-13T19:13:48.909Z,15.20
2018-07-13T19:16:17.090Z,13.60
2018-07-13T19:18:45.319Z,13.27
2018-07-13T19:21:13.582Z,13.50
2018-07-13T19:23:41.838Z,12.60
2018-07-13T19:26:10.043Z,14.20
2018-07-13T19:28:38.516Z,13.47
2018-07-13T19:31:06.867Z,12.87
2018-07-13T19:33:35.324Z,13.77
2018-07-13T19:36:03.555Z,13.93
2018-07-13T19:38:31.730Z,14.63
2018-07-13T19:40:59.955Z,15.13
2018-07-13T19:43:28.253Z,15.90
2018-07-13T19:45:56.480Z,15.90
2018-07-13T19:48:24.893Z,16.77
2018-07-13T19:50:53.115Z,15.07
2018-07-13T19:53:21.318Z,15.00
2018-07-13T19:55:49.561Z,15.50
2018-07-13T19:58:17.815Z,15.37
2018-07-13T20:00:46.222Z,15.20
2018-07-13T20:03:14.495Z,17.63
2018-07-13T20:05:42.765Z,16.83
2018-07-13T20:08:11.008Z,17.43
2018-07-13T20:10:39.290Z,17.50
2018-07-13T20:13:07.510Z,19.57
2018-07-13T20:15:35.723Z,18.63
2018-07-13T20:18:03.998Z,18.93
2018-07-13T20:20:32.288Z,18.17
2018-07-13T20:23:00.927Z,18.67
2018-07-13T20:25:29.350Z,18.03
2018-07-13T20:27:57.527Z,18.33
2018-07-13T20:30:25.711Z,19.70
2018-07-13T20:32:53.931Z,20.07
2018-07-13T20:35:22.096Z,19.80
2018-07-13T20:37:50.573Z,19.63
2018-07-13T20:40:18.939Z,19.00
2018-07-13T20:42:47.116Z,19.13
2018-07-13T20:45:15.367Z,19.63
2018-07-13T20:47:43.646Z,17.83
2018-07-13T20:50:11.770Z,19.93
2018-07-13T20:52:39.939Z,19.23
2018-07-13T20:55:08.130Z,21.40
2018-07-13T20:57:36.317Z,20.67
2018-07-13T21:00:05.219Z,19.63
2018-07-13T21:02:33.387Z,20.43
2018-07-13T21:05:01.810Z,18.83
2018-07-13T21:07:29.967Z,20.60
2018-07-13T21:09:58.151Z,19.73
2018-07-13T21:12:26.314Z,17.50
2018-07-13T21:14:54.515Z,18.23
2018-07-13T21:17:22.797Z,17.07
2018-07-13T21:19:50.984Z,16.67
2018-07-13T21:22:19.179Z,17.67
2018-07-13T21:24:47.347Z,18.03
2018-07-13T21:27:15.605Z,18.17
2018-07-13T21:29:43.682Z,17.23
2018-07-13T21:32:11.858Z,18.40
2018-07-13T21:34:40.031Z,17.20
2018-07-13T21:37:08.210Z,16.93
2018-07-13T21:39:36.391Z,17.77
2018-07-13T21:42:04.562Z,17.30
2018-07-13T21:44:32.746Z,16.90
2018-07-13T21:47:00.923Z,17.60
2018-07-13T21:49:30.579Z,17.80
2018-07-13T21:51:58.768Z,18.27
2018-07-13T21:54:26.942Z,18.30
2018-07-13T21:56:55.134Z,16.37
2018-07-13T21:59:23.291Z,17.10
2018-07-13T22:01:51.548Z,16.97
2018-07-13T22:04:19.637Z,18.40
2018-07-13T22:06:47.812Z,19.10
2018-07-13T22:09:15.971Z,17.87
2018-07-13T22:11:44.155Z,19.53
2018-07-13T22:14:12.334Z,19.37
2018-07-13T22:16:40.499Z,17.80
2018-07-13T22:19:08.683Z,19.47
2018-07-13T22:21:36.879Z,18.60
2018-07-13T22:24:05.175Z,17.43
2018-07-13T22:26:33.397Z,19.60
2018-07-13T22:29:01.507Z,18.57
2018-07-13T22:31:29.854Z,20.70
2018-07-13T22:33:58.027Z,20.00
2018-07-13T22:36:26.207Z,18.57
2018-07-13T22:38:54.378Z,18.27
2018-07-13T22:41:22.547Z,19.03
2018-07-13T22:43:50.719Z,19.27
2018-07-13T22:46:19.006Z,19.40
2018-07-13T22:48:47.419Z,19.67
2018-07-13T22:51:15.586Z,18.13
2018-07-13T22:53:43.754Z,18.77
2018-07-13T22:56:11.922Z,18.17
2018-07-13T22:58:40.092Z,19.30
2018-07-13T23:01:08.272Z,18.50
2018-07-13T23:03:36.444Z,19.40
2018-07-13T23:06:04.675Z,19.07
2018-07-13T23:08:32.894Z,19.23
2018-07-13T23:11:01.059Z,18.90
2018-07-13T23:13:29.322Z,18.97
2018-07-13T23:15:57.490Z,19.80
2018-07-13T23:18:25.680Z,19.60
2018-07-13T23:20:53.911Z,19.63
2018-07-13T23:23:22.091Z,18.90
2018-07-13T23:25:50.254Z,19.03
2018-07-13T23:28:18.411Z,19.53
2018-07-13T23:30:46.583Z,19.40
2018-07-13T23:33:14.754Z,19.93
2018-07-13T23:35:42.934Z,20.57
2018-07-13T23:38:11.107Z,19.53
2018-07-13T23:40:39.291Z,19.10
2018-07-13T23:43:07.472Z,18.30
2018-07-13T23:45:35.630Z,20.00
2018-07-13T23:48:03.827Z,18.90
2018-07-13T23:50:32.019Z,20.87
2018-07-13T23:53:00.196Z,20.73
2018-07-13T23:55:28.366Z,19.20
2018-07-13T23:57:56.542Z,19.77
